sensor_id;sensor_type;location;lat;lon;timestamp;temperature;humidity
11532;DHT22;5822;51.000;5.874;2023-01-30T00:01:41;6.50;99.90
11532;DHT22;5822;51.000;5.874;2023-01-30T00:04:07;6.50;99.90
11532;DHT22;5822;51.000;5.874;2023-01-30T00:06:33;6.50;99.90
11532;DHT22;5822;51.000;5.874;2023-01-30T00:08:58;6.50;99.90
11532;DHT22;5822;51.000;5.874;2023-01-30T00:11:24;6.60;99.90
11532;DHT22;5822;51.000;5.874;2023-01-30T00:13:53;6.50;99.90
11532;DHT22;5822;51.000;5.874;2023-01-30T00:16:18;6.50;99.90
11532;DHT22;5822;51.000;5.874;2023-01-30T00:18:44;6.50;99.90
11532;DHT22;5822;51.000;5.874;2023-01-30T00:21:12;6.60;99.90
11532;DHT22;5822;51.000;5.874;2023-01-30T00:23:38;6.60;99.90
11532;DHT22;5822;51.000;5.874;2023-01-30T00:26:05;6.50;99.90
11532;DHT22;5822;51.000;5.874;2023-01-30T00:28:32;6.60;99.90
11532;DHT22;5822;51.000;5.874;2023-01-30T00:30:57;6.70;99.90
11532;DHT22;5822;51.000;5.874;2023-01-30T00:33:25;6.70;99.90
11532;DHT22;5822;51.000;5.874;2023-01-30T00:35:52;6.60;99.90
11532;DHT22;5822;51.000;5.874;2023-01-30T00:38:18;6.70;99.90
11532;DHT22;5822;51.000;5.874;2023-01-30T00:40:45;6.80;99.90
11532;DHT22;5822;51.000;5.874;2023-01-30T00:43:16;6.70;99.90
11532;DHT22;5822;51.000;5.874;2023-01-30T00:46:02;6.80;99.90
11532;DHT22;5822;51.000;5.874;2023-01-30T00:48:47;6.70;99.90
11532;DHT22;5822;51.000;5.874;2023-01-30T00:51:13;6.60;99.90
11532;DHT22;5822;51.000;5.874;2023-01-30T00:53:39;6.70;99.90
11532;DHT22;5822;51.000;5.874;2023-01-30T00:56:05;6.70;99.90
11532;DHT22;5822;51.000;5.874;2023-01-30T00:58:30;6.70;99.90
11532;DHT22;5822;51.000;5.874;2023-01-30T01:00:56;6.70;99.90
11532;DHT22;5822;51.000;5.874;2023-01-30T01:03:22;6.80;99.90
11532;DHT22;5822;51.000;5.874;2023-01-30T01:05:47;6.80;99.90
11532;DHT22;5822;51.000;5.874;2023-01-30T01:08:13;6.80;99.90
11532;DHT22;5822;51.000;5.874;2023-01-30T01:10:39;6.70;99.90
11532;DHT22;5822;51.000;5.874;2023-01-30T01:13:05;6.80;99.90
11532;DHT22;5822;51.000;5.874;2023-01-30T01:15:32;6.90;99.90
11532;DHT22;5822;51.000;5.874;2023-01-30T01:17:57;6.90;99.90
11532;DHT22;5822;51.000;5.874;2023-01-30T01:20:23;6.90;99.90
11532;DHT22;5822;51.000;5.874;2023-01-30T01:22:54;6.90;99.90
11532;DHT22;5822;51.000;5.874;2023-01-30T01:25:21;6.90;99.90
11532;DHT22;5822;51.000;5.874;2023-01-30T01:27:47;6.80;99.90
11532;DHT22;5822;51.000;5.874;2023-01-30T01:30:13;6.80;99.90
11532;DHT22;5822;51.000;5.874;2023-01-30T01:32:38;6.80;99.90
11532;DHT22;5822;51.000;5.874;2023-01-30T01:35:05;6.80;99.90
11532;DHT22;5822;51.000;5.874;2023-01-30T01:37:30;6.70;99.90
11532;DHT22;5822;51.000;5.874;2023-01-30T01:39:56;6.70;99.90
11532;DHT22;5822;51.000;5.874;2023-01-30T01:42:40;6.90;99.90
11532;DHT22;5822;51.000;5.874;2023-01-30T01:47:41;6.90;99.90
11532;DHT22;5822;51.000;5.874;2023-01-30T01:50:24;6.80;99.90
11532;DHT22;5822;51.000;5.874;2023-01-30T01:52:53;6.90;99.90
11532;DHT22;5822;51.000;5.874;2023-01-30T01:55:22;6.70;99.90
11532;DHT22;5822;51.000;5.874;2023-01-30T01:57:53;6.70;99.90
11532;DHT22;5822;51.000;5.874;2023-01-30T02:00:20;6.80;99.90
11532;DHT22;5822;51.000;5.874;2023-01-30T02:02:54;6.80;99.90
11532;DHT22;5822;51.000;5.874;2023-01-30T02:05:22;6.80;99.90
11532;DHT22;5822;51.000;5.874;2023-01-30T02:07:53;6.70;99.90
11532;DHT22;5822;51.000;5.874;2023-01-30T02:10:25;6.80;99.90
11532;DHT22;5822;51.000;5.874;2023-01-30T02:12:52;6.70;99.90
11532;DHT22;5822;51.000;5.874;2023-01-30T02:15:18;6.80;99.90
11532;DHT22;5822;51.000;5.874;2023-01-30T02:17:44;6.70;99.90
11532;DHT22;5822;51.000;5.874;2023-01-30T02:25:45;6.90;99.90
11532;DHT22;5822;51.000;5.874;2023-01-30T02:31:29;6.80;99.90
11532;DHT22;5822;51.000;5.874;2023-01-30T02:39:18;6.90;99.90
11532;DHT22;5822;51.000;5.874;2023-01-30T02:47:05;7.00;99.90
11532;DHT22;5822;51.000;5.874;2023-01-30T02:49:38;7.00;99.90
11532;DHT22;5822;51.000;5.874;2023-01-30T02:52:06;6.90;99.90
11532;DHT22;5822;51.000;5.874;2023-01-30T02:54:33;7.00;99.90
11532;DHT22;5822;51.000;5.874;2023-01-30T02:56:59;6.90;99.90
11532;DHT22;5822;51.000;5.874;2023-01-30T02:59:45;6.90;99.90
11532;DHT22;5822;51.000;5.874;2023-01-30T03:02:36;7.00;99.90
11532;DHT22;5822;51.000;5.874;2023-01-30T03:05:35;7.10;99.90
11532;DHT22;5822;51.000;5.874;2023-01-30T03:13:36;7.10;99.90
11532;DHT22;5822;51.000;5.874;2023-01-30T03:16:33;7.20;99.90
11532;DHT22;5822;51.000;5.874;2023-01-30T03:19:00;7.10;99.90
11532;DHT22;5822;51.000;5.874;2023-01-30T03:21:27;7.20;99.90
11532;DHT22;5822;51.000;5.874;2023-01-30T03:23:53;7.10;99.90
11532;DHT22;5822;51.000;5.874;2023-01-30T03:26:25;7.10;99.90
11532;DHT22;5822;51.000;5.874;2023-01-30T03:28:52;7.10;99.90
11532;DHT22;5822;51.000;5.874;2023-01-30T03:31:18;7.30;99.90
11532;DHT22;5822;51.000;5.874;2023-01-30T03:33:44;7.20;99.90
11532;DHT22;5822;51.000;5.874;2023-01-30T03:36:09;7.30;99.90
11532;DHT22;5822;51.000;5.874;2023-01-30T03:38:35;7.30;99.90
11532;DHT22;5822;51.000;5.874;2023-01-30T03:41:02;7.30;99.90
11532;DHT22;5822;51.000;5.874;2023-01-30T03:43:28;7.30;99.90
11532;DHT22;5822;51.000;5.874;2023-01-30T03:45:54;7.20;99.90
11532;DHT22;5822;51.000;5.874;2023-01-30T03:48:20;7.30;99.90
11532;DHT22;5822;51.000;5.874;2023-01-30T03:50:45;7.30;99.90
11532;DHT22;5822;51.000;5.874;2023-01-30T03:53:11;7.30;99.90
11532;DHT22;5822;51.000;5.874;2023-01-30T03:55:37;7.30;99.90
11532;DHT22;5822;51.000;5.874;2023-01-30T03:58:03;7.40;99.90
11532;DHT22;5822;51.000;5.874;2023-01-30T04:00:29;7.30;99.90
11532;DHT22;5822;51.000;5.874;2023-01-30T04:02:55;7.30;99.90
11532;DHT22;5822;51.000;5.874;2023-01-30T04:05:22;7.30;99.90
11532;DHT22;5822;51.000;5.874;2023-01-30T04:07:49;7.50;99.90
11532;DHT22;5822;51.000;5.874;2023-01-30T04:10:15;7.40;99.90
11532;DHT22;5822;51.000;5.874;2023-01-30T04:12:42;7.30;99.90
11532;DHT22;5822;51.000;5.874;2023-01-30T04:15:09;7.30;99.90
11532;DHT22;5822;51.000;5.874;2023-01-30T04:17:34;7.40;99.90
11532;DHT22;5822;51.000;5.874;2023-01-30T04:20:01;7.40;99.90
11532;DHT22;5822;51.000;5.874;2023-01-30T04:22:26;7.40;99.90
11532;DHT22;5822;51.000;5.874;2023-01-30T04:24:52;7.30;99.90
11532;DHT22;5822;51.000;5.874;2023-01-30T04:27:17;7.40;99.90
11532;DHT22;5822;51.000;5.874;2023-01-30T04:29:43;7.40;99.90
11532;DHT22;5822;51.000;5.874;2023-01-30T04:32:09;7.40;99.90
11532;DHT22;5822;51.000;5.874;2023-01-30T04:34:34;7.40;99.90
11532;DHT22;5822;51.000;5.874;2023-01-30T04:37:00;7.40;99.90
11532;DHT22;5822;51.000;5.874;2023-01-30T04:39:26;7.40;99.90
11532;DHT22;5822;51.000;5.874;2023-01-30T04:41:51;7.30;99.90
11532;DHT22;5822;51.000;5.874;2023-01-30T04:44:17;7.30;99.90
11532;DHT22;5822;51.000;5.874;2023-01-30T04:46:42;7.30;99.90
11532;DHT22;5822;51.000;5.874;2023-01-30T04:49:09;7.30;99.90
11532;DHT22;5822;51.000;5.874;2023-01-30T04:51:35;7.30;99.90
11532;DHT22;5822;51.000;5.874;2023-01-30T04:54:00;7.40;99.90
11532;DHT22;5822;51.000;5.874;2023-01-30T04:56:26;7.30;99.90
11532;DHT22;5822;51.000;5.874;2023-01-30T04:58:52;7.30;99.90
11532;DHT22;5822;51.000;5.874;2023-01-30T05:01:24;7.40;99.90
11532;DHT22;5822;51.000;5.874;2023-01-30T05:03:51;7.40;99.90
11532;DHT22;5822;51.000;5.874;2023-01-30T05:06:17;7.40;99.90
11532;DHT22;5822;51.000;5.874;2023-01-30T05:08:43;7.40;99.90
11532;DHT22;5822;51.000;5.874;2023-01-30T05:11:11;7.30;99.90
11532;DHT22;5822;51.000;5.874;2023-01-30T05:13:37;7.30;99.90
11532;DHT22;5822;51.000;5.874;2023-01-30T05:16:03;7.40;99.90
11532;DHT22;5822;51.000;5.874;2023-01-30T05:18:29;7.40;99.90
11532;DHT22;5822;51.000;5.874;2023-01-30T05:21:23;7.40;99.90
11532;DHT22;5822;51.000;5.874;2023-01-30T05:23:47;7.30;99.90
11532;DHT22;5822;51.000;5.874;2023-01-30T05:26:14;7.40;99.90
11532;DHT22;5822;51.000;5.874;2023-01-30T05:28:40;7.40;99.90
11532;DHT22;5822;51.000;5.874;2023-01-30T05:31:12;7.50;99.90
11532;DHT22;5822;51.000;5.874;2023-01-30T05:33:39;7.40;99.90
11532;DHT22;5822;51.000;5.874;2023-01-30T05:36:05;7.40;99.90
11532;DHT22;5822;51.000;5.874;2023-01-30T05:38:31;7.40;99.90
11532;DHT22;5822;51.000;5.874;2023-01-30T05:41:04;7.40;99.90
11532;DHT22;5822;51.000;5.874;2023-01-30T05:43:30;7.40;99.90
11532;DHT22;5822;51.000;5.874;2023-01-30T05:45:57;7.40;99.90
11532;DHT22;5822;51.000;5.874;2023-01-30T05:48:24;7.40;99.90
11532;DHT22;5822;51.000;5.874;2023-01-30T05:50:53;7.40;99.90
11532;DHT22;5822;51.000;5.874;2023-01-30T05:53:20;7.40;99.90
11532;DHT22;5822;51.000;5.874;2023-01-30T05:55:53;7.50;99.90
11532;DHT22;5822;51.000;5.874;2023-01-30T05:58:19;7.50;99.90
11532;DHT22;5822;51.000;5.874;2023-01-30T06:00:44;7.40;99.90
11532;DHT22;5822;51.000;5.874;2023-01-30T06:03:10;7.40;99.90
11532;DHT22;5822;51.000;5.874;2023-01-30T06:05:37;7.40;99.90
11532;DHT22;5822;51.000;5.874;2023-01-30T06:08:03;7.50;99.90
11532;DHT22;5822;51.000;5.874;2023-01-30T06:10:28;7.50;99.90
11532;DHT22;5822;51.000;5.874;2023-01-30T06:12:54;7.50;99.90
11532;DHT22;5822;51.000;5.874;2023-01-30T06:15:19;7.60;99.90
11532;DHT22;5822;51.000;5.874;2023-01-30T06:17:45;7.60;99.90
11532;DHT22;5822;51.000;5.874;2023-01-30T06:20:11;7.70;99.90
11532;DHT22;5822;51.000;5.874;2023-01-30T06:22:37;7.60;99.90
11532;DHT22;5822;51.000;5.874;2023-01-30T06:25:03;7.60;99.90
11532;DHT22;5822;51.000;5.874;2023-01-30T06:27:29;7.50;99.90
11532;DHT22;5822;51.000;5.874;2023-01-30T06:29:55;7.50;99.90
11532;DHT22;5822;51.000;5.874;2023-01-30T06:32:20;7.50;99.90
11532;DHT22;5822;51.000;5.874;2023-01-30T06:34:46;7.50;99.90
11532;DHT22;5822;51.000;5.874;2023-01-30T06:37:12;7.60;99.90
11532;DHT22;5822;51.000;5.874;2023-01-30T06:39:37;7.60;99.90
11532;DHT22;5822;51.000;5.874;2023-01-30T06:42:03;7.70;99.90
11532;DHT22;5822;51.000;5.874;2023-01-30T06:44:29;7.70;99.90
11532;DHT22;5822;51.000;5.874;2023-01-30T06:46:55;7.70;99.90
11532;DHT22;5822;51.000;5.874;2023-01-30T06:49:20;7.70;99.90
11532;DHT22;5822;51.000;5.874;2023-01-30T06:51:46;7.70;99.90
11532;DHT22;5822;51.000;5.874;2023-01-30T06:54:11;7.70;99.90
11532;DHT22;5822;51.000;5.874;2023-01-30T06:56:37;7.80;99.90
11532;DHT22;5822;51.000;5.874;2023-01-30T06:59:02;7.80;99.90
11532;DHT22;5822;51.000;5.874;2023-01-30T07:01:28;7.80;99.90
11532;DHT22;5822;51.000;5.874;2023-01-30T07:03:54;7.70;99.90
11532;DHT22;5822;51.000;5.874;2023-01-30T07:06:19;7.90;99.90
11532;DHT22;5822;51.000;5.874;2023-01-30T07:08:45;7.80;99.90
11532;DHT22;5822;51.000;5.874;2023-01-30T07:11:11;7.80;99.90
11532;DHT22;5822;51.000;5.874;2023-01-30T07:13:36;7.90;99.90
11532;DHT22;5822;51.000;5.874;2023-01-30T07:16:02;7.90;99.90
11532;DHT22;5822;51.000;5.874;2023-01-30T07:18:28;7.80;99.90
11532;DHT22;5822;51.000;5.874;2023-01-30T07:20:53;8.00;99.90
11532;DHT22;5822;51.000;5.874;2023-01-30T07:23:19;8.00;99.90
11532;DHT22;5822;51.000;5.874;2023-01-30T07:25:45;8.00;99.90
11532;DHT22;5822;51.000;5.874;2023-01-30T07:28:13;8.00;99.90
11532;DHT22;5822;51.000;5.874;2023-01-30T07:30:39;8.00;99.90
11532;DHT22;5822;51.000;5.874;2023-01-30T07:33:05;8.00;99.90
11532;DHT22;5822;51.000;5.874;2023-01-30T07:35:33;8.10;99.90
11532;DHT22;5822;51.000;5.874;2023-01-30T07:37:59;8.10;99.90
11532;DHT22;5822;51.000;5.874;2023-01-30T07:40:25;8.10;99.90
11532;DHT22;5822;51.000;5.874;2023-01-30T07:43:11;8.10;99.90
11532;DHT22;5822;51.000;5.874;2023-01-30T07:45:47;8.20;99.90
11532;DHT22;5822;51.000;5.874;2023-01-30T07:48:15;8.10;99.90
11532;DHT22;5822;51.000;5.874;2023-01-30T07:50:42;8.10;99.90
11532;DHT22;5822;51.000;5.874;2023-01-30T07:53:10;8.00;99.90
11532;DHT22;5822;51.000;5.874;2023-01-30T07:55:35;8.00;99.90
11532;DHT22;5822;51.000;5.874;2023-01-30T07:58:02;8.00;99.90
11532;DHT22;5822;51.000;5.874;2023-01-30T08:00:28;8.00;99.90
11532;DHT22;5822;51.000;5.874;2023-01-30T08:02:54;8.00;99.90
11532;DHT22;5822;51.000;5.874;2023-01-30T08:05:19;8.00;99.90
11532;DHT22;5822;51.000;5.874;2023-01-30T08:07:45;7.90;99.90
11532;DHT22;5822;51.000;5.874;2023-01-30T08:10:12;7.90;99.90
11532;DHT22;5822;51.000;5.874;2023-01-30T08:12:38;7.90;99.90
11532;DHT22;5822;51.000;5.874;2023-01-30T08:15:07;7.90;99.90
11532;DHT22;5822;51.000;5.874;2023-01-30T08:17:32;7.90;99.90
11532;DHT22;5822;51.000;5.874;2023-01-30T08:19:58;7.90;99.90
11532;DHT22;5822;51.000;5.874;2023-01-30T08:22:24;7.90;99.90
11532;DHT22;5822;51.000;5.874;2023-01-30T08:24:50;8.00;99.90
11532;DHT22;5822;51.000;5.874;2023-01-30T08:27:15;8.00;99.90
11532;DHT22;5822;51.000;5.874;2023-01-30T08:29:42;8.00;99.90
11532;DHT22;5822;51.000;5.874;2023-01-30T08:32:07;8.00;99.90
11532;DHT22;5822;51.000;5.874;2023-01-30T08:34:33;8.00;99.90
11532;DHT22;5822;51.000;5.874;2023-01-30T08:37:00;8.00;99.90
11532;DHT22;5822;51.000;5.874;2023-01-30T08:39:26;8.00;99.90
11532;DHT22;5822;51.000;5.874;2023-01-30T08:41:51;8.00;99.90
11532;DHT22;5822;51.000;5.874;2023-01-30T08:44:17;8.00;99.90
11532;DHT22;5822;51.000;5.874;2023-01-30T08:46:43;8.00;99.90
11532;DHT22;5822;51.000;5.874;2023-01-30T08:49:09;8.00;99.90
11532;DHT22;5822;51.000;5.874;2023-01-30T08:51:35;8.00;99.90
11532;DHT22;5822;51.000;5.874;2023-01-30T08:54:01;8.00;99.90
11532;DHT22;5822;51.000;5.874;2023-01-30T08:56:26;8.00;99.90
11532;DHT22;5822;51.000;5.874;2023-01-30T08:58:52;8.00;99.90
11532;DHT22;5822;51.000;5.874;2023-01-30T09:01:18;8.00;99.90
11532;DHT22;5822;51.000;5.874;2023-01-30T09:03:43;8.10;99.90
11532;DHT22;5822;51.000;5.874;2023-01-30T09:06:09;8.10;99.90
11532;DHT22;5822;51.000;5.874;2023-01-30T09:08:35;8.10;99.90
11532;DHT22;5822;51.000;5.874;2023-01-30T09:11:03;8.10;99.90
11532;DHT22;5822;51.000;5.874;2023-01-30T09:13:29;8.00;99.90
11532;DHT22;5822;51.000;5.874;2023-01-30T09:15:56;8.10;99.90
11532;DHT22;5822;51.000;5.874;2023-01-30T09:18:22;8.00;99.90
11532;DHT22;5822;51.000;5.874;2023-01-30T09:20:47;8.10;99.90
11532;DHT22;5822;51.000;5.874;2023-01-30T09:23:13;8.10;99.90
11532;DHT22;5822;51.000;5.874;2023-01-30T09:25:39;8.10;99.90
11532;DHT22;5822;51.000;5.874;2023-01-30T09:28:04;8.10;99.90
11532;DHT22;5822;51.000;5.874;2023-01-30T09:30:30;8.10;99.90
11532;DHT22;5822;51.000;5.874;2023-01-30T09:32:55;8.10;99.90
11532;DHT22;5822;51.000;5.874;2023-01-30T09:35:21;8.10;99.90
11532;DHT22;5822;51.000;5.874;2023-01-30T09:37:48;8.10;99.90
11532;DHT22;5822;51.000;5.874;2023-01-30T09:40:17;8.10;99.90
11532;DHT22;5822;51.000;5.874;2023-01-30T09:43:04;8.10;99.90
11532;DHT22;5822;51.000;5.874;2023-01-30T09:49:11;8.20;99.90
11532;DHT22;5822;51.000;5.874;2023-01-30T09:54:29;8.30;99.90
11532;DHT22;5822;51.000;5.874;2023-01-30T10:03:28;8.30;99.90
11532;DHT22;5822;51.000;5.874;2023-01-30T10:05:29;8.30;99.90
11532;DHT22;5822;51.000;5.874;2023-01-30T10:10:48;8.30;99.90
11532;DHT22;5822;51.000;5.874;2023-01-30T10:23:52;8.30;99.90
11532;DHT22;5822;51.000;5.874;2023-01-30T10:26:25;8.30;99.90
11532;DHT22;5822;51.000;5.874;2023-01-30T10:31:39;8.30;99.90
11532;DHT22;5822;51.000;5.874;2023-01-30T10:34:13;8.40;99.90
11532;DHT22;5822;51.000;5.874;2023-01-30T10:37:02;8.40;99.90
11532;DHT22;5822;51.000;5.874;2023-01-30T10:39:50;8.50;99.90
11532;DHT22;5822;51.000;5.874;2023-01-30T10:42:30;8.50;99.90
11532;DHT22;5822;51.000;5.874;2023-01-30T10:45:17;8.60;99.90
11532;DHT22;5822;51.000;5.874;2023-01-30T10:50:19;8.60;99.90
11532;DHT22;5822;51.000;5.874;2023-01-30T10:55:44;8.60;99.90
11532;DHT22;5822;51.000;5.874;2023-01-30T11:01:30;8.70;99.90
11532;DHT22;5822;51.000;5.874;2023-01-30T11:04:12;8.70;99.90
11532;DHT22;5822;51.000;5.874;2023-01-30T11:06:39;8.70;99.90
11532;DHT22;5822;51.000;5.874;2023-01-30T11:09:05;8.80;99.90
11532;DHT22;5822;51.000;5.874;2023-01-30T11:11:50;8.70;99.90
11532;DHT22;5822;51.000;5.874;2023-01-30T11:14:16;8.70;99.90
11532;DHT22;5822;51.000;5.874;2023-01-30T11:16:55;8.70;99.90
11532;DHT22;5822;51.000;5.874;2023-01-30T11:19:24;8.70;99.90
11532;DHT22;5822;51.000;5.874;2023-01-30T11:22:00;8.70;99.90
11532;DHT22;5822;51.000;5.874;2023-01-30T11:24:31;8.70;99.90
11532;DHT22;5822;51.000;5.874;2023-01-30T11:27:20;8.70;99.90
11532;DHT22;5822;51.000;5.874;2023-01-30T11:29:48;8.70;99.90
11532;DHT22;5822;51.000;5.874;2023-01-30T11:32:28;8.70;99.90
11532;DHT22;5822;51.000;5.874;2023-01-30T11:37:35;8.70;99.90
11532;DHT22;5822;51.000;5.874;2023-01-30T11:42:48;8.70;99.90
11532;DHT22;5822;51.000;5.874;2023-01-30T11:45:15;8.70;99.90
11532;DHT22;5822;51.000;5.874;2023-01-30T11:47:53;8.70;99.90
11532;DHT22;5822;51.000;5.874;2023-01-30T11:50:30;8.70;99.90
11532;DHT22;5822;51.000;5.874;2023-01-30T11:53:01;8.70;99.90
11532;DHT22;5822;51.000;5.874;2023-01-30T11:55:29;8.70;99.90
11532;DHT22;5822;51.000;5.874;2023-01-30T11:57:57;8.70;99.90
11532;DHT22;5822;51.000;5.874;2023-01-30T12:00:38;8.70;99.90
11532;DHT22;5822;51.000;5.874;2023-01-30T12:03:10;8.70;99.90
11532;DHT22;5822;51.000;5.874;2023-01-30T12:05:38;8.60;99.90
11532;DHT22;5822;51.000;5.874;2023-01-30T12:10:46;8.60;99.90
11532;DHT22;5822;51.000;5.874;2023-01-30T12:15:50;8.70;99.90
11532;DHT22;5822;51.000;5.874;2023-01-30T12:18:32;8.60;99.90
11532;DHT22;5822;51.000;5.874;2023-01-30T12:21:14;8.60;99.90
11532;DHT22;5822;51.000;5.874;2023-01-30T12:26:29;8.70;99.90
11532;DHT22;5822;51.000;5.874;2023-01-30T12:29:15;8.70;99.90
11532;DHT22;5822;51.000;5.874;2023-01-30T12:34:17;8.70;99.90
11532;DHT22;5822;51.000;5.874;2023-01-30T12:42:43;8.80;99.90
11532;DHT22;5822;51.000;5.874;2023-01-30T12:53:22;8.80;99.90
11532;DHT22;5822;51.000;5.874;2023-01-30T12:55:56;8.80;99.90
11532;DHT22;5822;51.000;5.874;2023-01-30T12:58:29;8.80;99.90
11532;DHT22;5822;51.000;5.874;2023-01-30T13:03:44;8.90;99.90
11532;DHT22;5822;51.000;5.874;2023-01-30T13:12:02;8.90;99.90
11532;DHT22;5822;51.000;5.874;2023-01-30T13:20:30;9.00;99.90
11532;DHT22;5822;51.000;5.874;2023-01-30T13:28:35;8.90;99.90
11532;DHT22;5822;51.000;5.874;2023-01-30T13:31:05;8.90;99.90
11532;DHT22;5822;51.000;5.874;2023-01-30T13:33:36;8.90;99.90
11532;DHT22;5822;51.000;5.874;2023-01-30T13:41:39;8.90;99.90
11532;DHT22;5822;51.000;5.874;2023-01-30T13:44:18;9.00;99.90
11532;DHT22;5822;51.000;5.874;2023-01-30T13:46:46;9.00;99.90
11532;DHT22;5822;51.000;5.874;2023-01-30T13:49:32;9.00;99.90
11532;DHT22;5822;51.000;5.874;2023-01-30T13:55:09;9.00;99.90
11532;DHT22;5822;51.000;5.874;2023-01-30T13:57:57;9.00;99.90
11532;DHT22;5822;51.000;5.874;2023-01-30T14:00:30;9.00;99.90
11532;DHT22;5822;51.000;5.874;2023-01-30T14:08:31;9.00;99.90
11532;DHT22;5822;51.000;5.874;2023-01-30T14:10:57;9.00;99.90
11532;DHT22;5822;51.000;5.874;2023-01-30T14:13:25;9.00;99.90
11532;DHT22;5822;51.000;5.874;2023-01-30T14:16:02;9.00;99.90
11532;DHT22;5822;51.000;5.874;2023-01-30T14:18:38;9.10;99.90
11532;DHT22;5822;51.000;5.874;2023-01-30T14:21:23;9.10;99.90
11532;DHT22;5822;51.000;5.874;2023-01-30T14:23:57;9.10;99.90
11532;DHT22;5822;51.000;5.874;2023-01-30T14:48:41;9.20;99.90
11532;DHT22;5822;51.000;5.874;2023-01-30T14:56:55;9.10;99.90
11532;DHT22;5822;51.000;5.874;2023-01-30T15:09:59;9.10;99.90
11532;DHT22;5822;51.000;5.874;2023-01-30T15:12:47;9.10;99.90
11532;DHT22;5822;51.000;5.874;2023-01-30T15:18:38;9.10;99.90
11532;DHT22;5822;51.000;5.874;2023-01-30T15:26:29;9.10;99.90
11532;DHT22;5822;51.000;5.874;2023-01-30T15:31:59;9.20;99.90
11532;DHT22;5822;51.000;5.874;2023-01-30T15:34:30;9.20;99.90
11532;DHT22;5822;51.000;5.874;2023-01-30T15:36:56;9.10;99.90
11532;DHT22;5822;51.000;5.874;2023-01-30T15:39:24;9.10;99.90
11532;DHT22;5822;51.000;5.874;2023-01-30T15:41:51;9.10;99.90
11532;DHT22;5822;51.000;5.874;2023-01-30T15:52:21;9.10;99.90
11532;DHT22;5822;51.000;5.874;2023-01-30T15:54:52;9.10;99.90
11532;DHT22;5822;51.000;5.874;2023-01-30T15:57:25;9.00;99.90
11532;DHT22;5822;51.000;5.874;2023-01-30T15:59:54;9.10;99.90
11532;DHT22;5822;51.000;5.874;2023-01-30T16:05:12;9.10;99.90
11532;DHT22;5822;51.000;5.874;2023-01-30T16:07:38;9.10;99.90
11532;DHT22;5822;51.000;5.874;2023-01-30T16:10:12;9.10;99.90
11532;DHT22;5822;51.000;5.874;2023-01-30T16:12:38;9.10;99.90
11532;DHT22;5822;51.000;5.874;2023-01-30T16:15:15;9.10;99.90
11532;DHT22;5822;51.000;5.874;2023-01-30T16:17:44;9.20;99.90
11532;DHT22;5822;51.000;5.874;2023-01-30T16:20:16;9.10;99.90
11532;DHT22;5822;51.000;5.874;2023-01-30T16:22:43;9.10;99.90
11532;DHT22;5822;51.000;5.874;2023-01-30T16:25:24;9.10;99.90
11532;DHT22;5822;51.000;5.874;2023-01-30T16:27:50;9.10;99.90
11532;DHT22;5822;51.000;5.874;2023-01-30T16:30:26;9.10;99.90
11532;DHT22;5822;51.000;5.874;2023-01-30T16:32:54;9.10;99.90
11532;DHT22;5822;51.000;5.874;2023-01-30T16:37:49;9.00;99.90
11532;DHT22;5822;51.000;5.874;2023-01-30T16:40:24;9.10;99.90
11532;DHT22;5822;51.000;5.874;2023-01-30T16:43:12;9.10;99.90
11532;DHT22;5822;51.000;5.874;2023-01-30T16:46:29;9.10;99.90
11532;DHT22;5822;51.000;5.874;2023-01-30T16:48:49;9.10;99.90
11532;DHT22;5822;51.000;5.874;2023-01-30T16:51:20;9.10;99.90
11532;DHT22;5822;51.000;5.874;2023-01-30T16:53:59;9.10;99.90
11532;DHT22;5822;51.000;5.874;2023-01-30T16:56:26;9.10;99.90
11532;DHT22;5822;51.000;5.874;2023-01-30T16:58:55;9.00;99.90
11532;DHT22;5822;51.000;5.874;2023-01-30T17:01:22;9.10;99.90
11532;DHT22;5822;51.000;5.874;2023-01-30T17:04:00;9.10;99.90
11532;DHT22;5822;51.000;5.874;2023-01-30T17:06:36;9.10;99.90
11532;DHT22;5822;51.000;5.874;2023-01-30T17:09:09;9.00;99.90
11532;DHT22;5822;51.000;5.874;2023-01-30T17:11:51;9.00;99.90
11532;DHT22;5822;51.000;5.874;2023-01-30T17:16:46;9.00;99.90
11532;DHT22;5822;51.000;5.874;2023-01-30T17:19:13;9.00;99.90
11532;DHT22;5822;51.000;5.874;2023-01-30T17:24:14;9.00;99.90
11532;DHT22;5822;51.000;5.874;2023-01-30T17:26:40;9.00;99.90
11532;DHT22;5822;51.000;5.874;2023-01-30T17:29:08;9.00;99.90
11532;DHT22;5822;51.000;5.874;2023-01-30T17:31:34;9.00;99.90
11532;DHT22;5822;51.000;5.874;2023-01-30T17:33:59;9.00;99.90
11532;DHT22;5822;51.000;5.874;2023-01-30T17:36:27;9.00;99.90
11532;DHT22;5822;51.000;5.874;2023-01-30T17:38:53;9.10;99.90
11532;DHT22;5822;51.000;5.874;2023-01-30T17:41:22;9.00;99.90
11532;DHT22;5822;51.000;5.874;2023-01-30T17:43:48;9.10;99.90
11532;DHT22;5822;51.000;5.874;2023-01-30T17:46:14;9.10;99.90
11532;DHT22;5822;51.000;5.874;2023-01-30T17:48:39;9.10;99.90
11532;DHT22;5822;51.000;5.874;2023-01-30T17:51:05;9.10;99.90
11532;DHT22;5822;51.000;5.874;2023-01-30T17:53:30;9.10;99.90
11532;DHT22;5822;51.000;5.874;2023-01-30T17:55:56;9.00;99.90
11532;DHT22;5822;51.000;5.874;2023-01-30T17:58:22;9.00;99.90
11532;DHT22;5822;51.000;5.874;2023-01-30T18:00:47;9.00;99.90
11532;DHT22;5822;51.000;5.874;2023-01-30T18:03:13;9.00;99.90
11532;DHT22;5822;51.000;5.874;2023-01-30T18:05:39;9.00;99.90
11532;DHT22;5822;51.000;5.874;2023-01-30T18:08:05;8.90;99.90
11532;DHT22;5822;51.000;5.874;2023-01-30T18:10:31;8.80;99.90
11532;DHT22;5822;51.000;5.874;2023-01-30T18:12:57;8.70;99.90
11532;DHT22;5822;51.000;5.874;2023-01-30T18:15:22;8.70;99.90
11532;DHT22;5822;51.000;5.874;2023-01-30T18:17:48;8.70;99.90
11532;DHT22;5822;51.000;5.874;2023-01-30T18:20:18;8.70;99.90
11532;DHT22;5822;51.000;5.874;2023-01-30T18:22:44;8.70;99.90
11532;DHT22;5822;51.000;5.874;2023-01-30T18:25:10;8.70;99.90
11532;DHT22;5822;51.000;5.874;2023-01-30T18:27:43;8.70;99.90
11532;DHT22;5822;51.000;5.874;2023-01-30T18:30:13;8.70;99.90
11532;DHT22;5822;51.000;5.874;2023-01-30T18:32:39;8.60;99.90
11532;DHT22;5822;51.000;5.874;2023-01-30T18:35:05;8.70;99.90
11532;DHT22;5822;51.000;5.874;2023-01-30T18:37:31;8.70;99.90
11532;DHT22;5822;51.000;5.874;2023-01-30T18:39:57;8.70;99.90
11532;DHT22;5822;51.000;5.874;2023-01-30T18:42:22;8.70;99.90
11532;DHT22;5822;51.000;5.874;2023-01-30T18:44:48;8.70;99.90
11532;DHT22;5822;51.000;5.874;2023-01-30T18:47:13;8.70;99.90
11532;DHT22;5822;51.000;5.874;2023-01-30T18:49:39;8.70;99.90
11532;DHT22;5822;51.000;5.874;2023-01-30T18:52:05;8.70;99.90
11532;DHT22;5822;51.000;5.874;2023-01-30T18:54:30;8.70;99.90
11532;DHT22;5822;51.000;5.874;2023-01-30T18:56:56;8.70;99.90
11532;DHT22;5822;51.000;5.874;2023-01-30T18:59:22;8.60;99.90
11532;DHT22;5822;51.000;5.874;2023-01-30T19:01:49;8.60;99.90
11532;DHT22;5822;51.000;5.874;2023-01-30T19:04:15;8.60;99.90
11532;DHT22;5822;51.000;5.874;2023-01-30T19:06:41;8.60;99.90
11532;DHT22;5822;51.000;5.874;2023-01-30T19:09:11;8.60;99.90
11532;DHT22;5822;51.000;5.874;2023-01-30T19:11:37;8.60;99.90
11532;DHT22;5822;51.000;5.874;2023-01-30T19:14:21;8.60;99.90
11532;DHT22;5822;51.000;5.874;2023-01-30T19:16:47;8.70;99.90
11532;DHT22;5822;51.000;5.874;2023-01-30T19:19:15;8.60;99.90
11532;DHT22;5822;51.000;5.874;2023-01-30T19:21:41;8.60;99.90
11532;DHT22;5822;51.000;5.874;2023-01-30T19:24:11;8.50;99.90
11532;DHT22;5822;51.000;5.874;2023-01-30T19:26:37;8.50;99.90
11532;DHT22;5822;51.000;5.874;2023-01-30T19:29:03;8.40;99.90
11532;DHT22;5822;51.000;5.874;2023-01-30T19:31:28;8.50;99.90